sensor_id;sensor_type;location;lat;lon;timestamp;temperature;humidity
17988;DHT22;9119;50.932;5.342;2022-07-10T00:01:35;15.90;99.90
17988;DHT22;9119;50.932;5.342;2022-07-10T00:04:01;15.90;99.90
17988;DHT22;9119;50.932;5.342;2022-07-10T00:06:27;15.90;99.90
17988;DHT22;9119;50.932;5.342;2022-07-10T00:08:52;16.00;99.90
17988;DHT22;9119;50.932;5.342;2022-07-10T00:11:20;15.70;99.90
17988;DHT22;9119;50.932;5.342;2022-07-10T00:13:46;15.60;99.90
17988;DHT22;9119;50.932;5.342;2022-07-10T00:16:12;15.70;99.90
17988;DHT22;9119;50.932;5.342;2022-07-10T00:18:37;15.70;99.90
17988;DHT22;9119;50.932;5.342;2022-07-10T00:21:03;16.10;99.90
17988;DHT22;9119;50.932;5.342;2022-07-10T00:23:28;15.90;99.90
17988;DHT22;9119;50.932;5.342;2022-07-10T00:25:54;15.70;99.90
17988;DHT22;9119;50.932;5.342;2022-07-10T00:28:20;15.80;99.90
17988;DHT22;9119;50.932;5.342;2022-07-10T00:30:45;15.60;99.90
17988;DHT22;9119;50.932;5.342;2022-07-10T00:33:11;15.60;99.90
17988;DHT22;9119;50.932;5.342;2022-07-10T00:35:36;15.70;99.90
17988;DHT22;9119;50.932;5.342;2022-07-10T00:38:02;15.60;99.90
17988;DHT22;9119;50.932;5.342;2022-07-10T00:40:28;15.60;99.90
17988;DHT22;9119;50.932;5.342;2022-07-10T00:42:53;15.60;99.90
17988;DHT22;9119;50.932;5.342;2022-07-10T00:45:19;15.60;99.90
17988;DHT22;9119;50.932;5.342;2022-07-10T00:47:44;15.50;99.90
17988;DHT22;9119;50.932;5.342;2022-07-10T00:50:10;15.40;99.90
17988;DHT22;9119;50.932;5.342;2022-07-10T00:52:38;15.40;99.90
17988;DHT22;9119;50.932;5.342;2022-07-10T00:55:07;15.40;99.90
17988;DHT22;9119;50.932;5.342;2022-07-10T00:57:34;15.40;99.90
17988;DHT22;9119;50.932;5.342;2022-07-10T01:00:00;15.40;99.90
17988;DHT22;9119;50.932;5.342;2022-07-10T01:02:26;15.40;99.90
17988;DHT22;9119;50.932;5.342;2022-07-10T01:04:52;15.40;99.90
17988;DHT22;9119;50.932;5.342;2022-07-10T01:07:17;15.30;99.90
17988;DHT22;9119;50.932;5.342;2022-07-10T01:09:43;15.30;99.90
17988;DHT22;9119;50.932;5.342;2022-07-10T01:12:11;15.30;99.90
17988;DHT22;9119;50.932;5.342;2022-07-10T01:14:37;15.30;99.90
17988;DHT22;9119;50.932;5.342;2022-07-10T01:17:06;15.30;99.90
17988;DHT22;9119;50.932;5.342;2022-07-10T01:19:33;15.30;99.90
17988;DHT22;9119;50.932;5.342;2022-07-10T01:21:58;15.20;99.90
17988;DHT22;9119;50.932;5.342;2022-07-10T01:24:24;15.10;99.90
17988;DHT22;9119;50.932;5.342;2022-07-10T01:26:50;15.10;99.90
17988;DHT22;9119;50.932;5.342;2022-07-10T01:29:15;14.90;99.90
17988;DHT22;9119;50.932;5.342;2022-07-10T01:31:41;14.80;99.90
17988;DHT22;9119;50.932;5.342;2022-07-10T01:34:08;14.80;99.90
17988;DHT22;9119;50.932;5.342;2022-07-10T01:36:37;14.80;99.90
17988;DHT22;9119;50.932;5.342;2022-07-10T01:39:03;14.80;99.90
17988;DHT22;9119;50.932;5.342;2022-07-10T01:41:29;15.10;99.90
17988;DHT22;9119;50.932;5.342;2022-07-10T01:43:55;15.10;99.90
17988;DHT22;9119;50.932;5.342;2022-07-10T01:46:20;14.90;99.90
17988;DHT22;9119;50.932;5.342;2022-07-10T01:48:46;14.80;99.90
17988;DHT22;9119;50.932;5.342;2022-07-10T01:51:13;15.20;99.90
17988;DHT22;9119;50.932;5.342;2022-07-10T01:53:39;15.20;99.90
17988;DHT22;9119;50.932;5.342;2022-07-10T01:56:07;15.10;99.90
17988;DHT22;9119;50.932;5.342;2022-07-10T01:58:34;14.90;99.90
17988;DHT22;9119;50.932;5.342;2022-07-10T02:01:00;15.00;99.90
17988;DHT22;9119;50.932;5.342;2022-07-10T02:03:26;15.30;99.90
17988;DHT22;9119;50.932;5.342;2022-07-10T02:06:10;15.40;99.90
17988;DHT22;9119;50.932;5.342;2022-07-10T02:08:36;15.40;99.90
17988;DHT22;9119;50.932;5.342;2022-07-10T02:11:01;15.30;99.90
17988;DHT22;9119;50.932;5.342;2022-07-10T02:13:27;15.20;99.90
17988;DHT22;9119;50.932;5.342;2022-07-10T02:15:56;15.10;99.90
17988;DHT22;9119;50.932;5.342;2022-07-10T02:18:22;15.00;99.90
17988;DHT22;9119;50.932;5.342;2022-07-10T02:20:48;14.80;99.90
17988;DHT22;9119;50.932;5.342;2022-07-10T02:23:17;14.80;99.90
17988;DHT22;9119;50.932;5.342;2022-07-10T02:25:42;14.70;99.90
17988;DHT22;9119;50.932;5.342;2022-07-10T02:28:09;14.60;99.90
17988;DHT22;9119;50.932;5.342;2022-07-10T02:30:35;14.50;99.90
17988;DHT22;9119;50.932;5.342;2022-07-10T02:33:01;14.40;99.90
17988;DHT22;9119;50.932;5.342;2022-07-10T02:35:26;14.30;99.90
17988;DHT22;9119;50.932;5.342;2022-07-10T02:37:52;14.50;99.90
17988;DHT22;9119;50.932;5.342;2022-07-10T02:40:18;14.70;99.90
17988;DHT22;9119;50.932;5.342;2022-07-10T02:42:43;14.60;99.90
17988;DHT22;9119;50.932;5.342;2022-07-10T02:45:09;14.90;99.90
17988;DHT22;9119;50.932;5.342;2022-07-10T02:47:35;14.60;99.90
17988;DHT22;9119;50.932;5.342;2022-07-10T02:50:01;14.60;99.90
17988;DHT22;9119;50.932;5.342;2022-07-10T02:52:26;14.50;99.90
17988;DHT22;9119;50.932;5.342;2022-07-10T02:54:56;14.40;99.90
17988;DHT22;9119;50.932;5.342;2022-07-10T02:57:21;14.40;99.90
17988;DHT22;9119;50.932;5.342;2022-07-10T02:59:47;14.50;99.90
17988;DHT22;9119;50.932;5.342;2022-07-10T03:02:13;14.40;99.90
17988;DHT22;9119;50.932;5.342;2022-07-10T03:04:38;14.60;99.90
17988;DHT22;9119;50.932;5.342;2022-07-10T03:07:04;14.70;99.90
17988;DHT22;9119;50.932;5.342;2022-07-10T03:09:30;14.70;99.90
17988;DHT22;9119;50.932;5.342;2022-07-10T03:11:56;14.80;99.90
17988;DHT22;9119;50.932;5.342;2022-07-10T03:14:21;14.50;99.90
17988;DHT22;9119;50.932;5.342;2022-07-10T03:16:47;14.30;99.90
17988;DHT22;9119;50.932;5.342;2022-07-10T03:19:12;14.30;99.90
17988;DHT22;9119;50.932;5.342;2022-07-10T03:21:38;14.50;99.90
17988;DHT22;9119;50.932;5.342;2022-07-10T03:24:04;14.60;99.90
17988;DHT22;9119;50.932;5.342;2022-07-10T03:26:29;14.60;99.90
17988;DHT22;9119;50.932;5.342;2022-07-10T03:28:56;14.70;99.90
17988;DHT22;9119;50.932;5.342;2022-07-10T03:31:22;14.60;99.90
17988;DHT22;9119;50.932;5.342;2022-07-10T03:33:47;14.60;99.90
17988;DHT22;9119;50.932;5.342;2022-07-10T03:36:13;14.50;99.90
17988;DHT22;9119;50.932;5.342;2022-07-10T03:38:39;14.60;99.90
17988;DHT22;9119;50.932;5.342;2022-07-10T03:41:05;14.70;99.90
17988;DHT22;9119;50.932;5.342;2022-07-10T03:43:31;14.40;99.90
17988;DHT22;9119;50.932;5.342;2022-07-10T03:45:57;14.10;99.90
17988;DHT22;9119;50.932;5.342;2022-07-10T03:48:23;14.00;99.90
17988;DHT22;9119;50.932;5.342;2022-07-10T03:50:52;14.00;99.90
17988;DHT22;9119;50.932;5.342;2022-07-10T03:53:18;14.00;99.90
17988;DHT22;9119;50.932;5.342;2022-07-10T03:55:44;14.00;99.90
17988;DHT22;9119;50.932;5.342;2022-07-10T03:58:10;14.20;99.90
17988;DHT22;9119;50.932;5.342;2022-07-10T04:00:35;14.30;99.90
17988;DHT22;9119;50.932;5.342;2022-07-10T04:03:05;14.50;99.90
17988;DHT22;9119;50.932;5.342;2022-07-10T04:05:31;14.50;99.90
17988;DHT22;9119;50.932;5.342;2022-07-10T04:07:58;14.50;99.90
17988;DHT22;9119;50.932;5.342;2022-07-10T04:10:27;14.50;99.90
17988;DHT22;9119;50.932;5.342;2022-07-10T04:12:53;14.50;99.90
17988;DHT22;9119;50.932;5.342;2022-07-10T04:15:19;14.60;99.90
17988;DHT22;9119;50.932;5.342;2022-07-10T04:17:45;14.40;99.90
17988;DHT22;9119;50.932;5.342;2022-07-10T04:20:11;14.10;99.90
17988;DHT22;9119;50.932;5.342;2022-07-10T04:22:37;14.10;99.90
17988;DHT22;9119;50.932;5.342;2022-07-10T04:25:03;14.30;99.90
17988;DHT22;9119;50.932;5.342;2022-07-10T04:27:29;14.10;99.90
17988;DHT22;9119;50.932;5.342;2022-07-10T04:29:55;14.10;99.90
17988;DHT22;9119;50.932;5.342;2022-07-10T04:32:21;14.30;99.90
17988;DHT22;9119;50.932;5.342;2022-07-10T04:34:47;14.40;99.90
17988;DHT22;9119;50.932;5.342;2022-07-10T04:37:13;14.40;99.90
17988;DHT22;9119;50.932;5.342;2022-07-10T04:39:39;14.60;99.90
17988;DHT22;9119;50.932;5.342;2022-07-10T04:42:05;14.50;99.90
17988;DHT22;9119;50.932;5.342;2022-07-10T04:44:31;14.50;99.90
17988;DHT22;9119;50.932;5.342;2022-07-10T04:46:57;14.50;99.90
17988;DHT22;9119;50.932;5.342;2022-07-10T04:49:24;14.40;99.90
17988;DHT22;9119;50.932;5.342;2022-07-10T04:51:50;14.30;99.90
17988;DHT22;9119;50.932;5.342;2022-07-10T04:54:15;14.40;99.90
17988;DHT22;9119;50.932;5.342;2022-07-10T04:56:41;14.40;99.90
17988;DHT22;9119;50.932;5.342;2022-07-10T04:59:07;14.70;99.90
17988;DHT22;9119;50.932;5.342;2022-07-10T05:01:33;14.30;99.90
17988;DHT22;9119;50.932;5.342;2022-07-10T05:03:58;14.00;99.90
17988;DHT22;9119;50.932;5.342;2022-07-10T05:06:24;14.20;99.90
17988;DHT22;9119;50.932;5.342;2022-07-10T05:08:50;14.20;99.90
17988;DHT22;9119;50.932;5.342;2022-07-10T05:11:16;14.30;99.90
17988;DHT22;9119;50.932;5.342;2022-07-10T05:13:42;14.50;99.90
17988;DHT22;9119;50.932;5.342;2022-07-10T05:16:12;14.80;99.90
17988;DHT22;9119;50.932;5.342;2022-07-10T05:18:40;15.00;99.90
17988;DHT22;9119;50.932;5.342;2022-07-10T05:21:06;15.10;99.90
17988;DHT22;9119;50.932;5.342;2022-07-10T05:23:32;15.00;99.90
17988;DHT22;9119;50.932;5.342;2022-07-10T05:25:58;15.20;99.90
17988;DHT22;9119;50.932;5.342;2022-07-10T05:28:23;15.20;99.90
17988;DHT22;9119;50.932;5.342;2022-07-10T05:30:49;15.30;99.90
17988;DHT22;9119;50.932;5.342;2022-07-10T05:33:15;15.20;99.90
17988;DHT22;9119;50.932;5.342;2022-07-10T05:35:41;14.90;99.90
17988;DHT22;9119;50.932;5.342;2022-07-10T05:38:07;14.90;99.90
17988;DHT22;9119;50.932;5.342;2022-07-10T05:40:33;15.00;99.90
17988;DHT22;9119;50.932;5.342;2022-07-10T05:42:58;15.20;99.90
17988;DHT22;9119;50.932;5.342;2022-07-10T05:45:24;15.10;99.90
17988;DHT22;9119;50.932;5.342;2022-07-10T05:47:50;15.00;99.90
17988;DHT22;9119;50.932;5.342;2022-07-10T05:50:16;15.00;99.90
17988;DHT22;9119;50.932;5.342;2022-07-10T05:52:42;15.10;99.90
17988;DHT22;9119;50.932;5.342;2022-07-10T05:55:08;14.90;99.90
17988;DHT22;9119;50.932;5.342;2022-07-10T05:57:34;15.00;99.90
17988;DHT22;9119;50.932;5.342;2022-07-10T06:00:00;15.00;99.90
17988;DHT22;9119;50.932;5.342;2022-07-10T06:02:26;15.10;99.90
17988;DHT22;9119;50.932;5.342;2022-07-10T06:04:52;15.30;99.90
17988;DHT22;9119;50.932;5.342;2022-07-10T06:07:18;15.40;99.90
17988;DHT22;9119;50.932;5.342;2022-07-10T06:09:44;15.50;99.90
17988;DHT22;9119;50.932;5.342;2022-07-10T06:12:09;15.40;99.90
17988;DHT22;9119;50.932;5.342;2022-07-10T06:14:35;15.20;99.90
17988;DHT22;9119;50.932;5.342;2022-07-10T06:17:01;15.30;99.90
17988;DHT22;9119;50.932;5.342;2022-07-10T06:19:27;15.60;99.90
17988;DHT22;9119;50.932;5.342;2022-07-10T06:21:52;15.80;99.90
17988;DHT22;9119;50.932;5.342;2022-07-10T06:24:38;15.90;99.90
17988;DHT22;9119;50.932;5.342;2022-07-10T06:27:04;16.00;99.90
17988;DHT22;9119;50.932;5.342;2022-07-10T06:29:31;16.00;99.90
17988;DHT22;9119;50.932;5.342;2022-07-10T06:31:56;16.10;99.90
17988;DHT22;9119;50.932;5.342;2022-07-10T06:34:22;16.30;99.90
17988;DHT22;9119;50.932;5.342;2022-07-10T06:36:48;16.10;99.90
17988;DHT22;9119;50.932;5.342;2022-07-10T06:39:13;15.80;99.90
17988;DHT22;9119;50.932;5.342;2022-07-10T06:41:39;15.70;99.90
17988;DHT22;9119;50.932;5.342;2022-07-10T06:44:05;15.80;99.90
17988;DHT22;9119;50.932;5.342;2022-07-10T06:46:31;15.70;99.90
17988;DHT22;9119;50.932;5.342;2022-07-10T06:48:58;15.90;99.90
17988;DHT22;9119;50.932;5.342;2022-07-10T06:51:23;16.10;99.90
17988;DHT22;9119;50.932;5.342;2022-07-10T06:53:49;16.40;99.90
17988;DHT22;9119;50.932;5.342;2022-07-10T06:56:15;16.80;99.90
17988;DHT22;9119;50.932;5.342;2022-07-10T06:58:41;16.90;99.90
17988;DHT22;9119;50.932;5.342;2022-07-10T07:01:07;16.60;99.90
17988;DHT22;9119;50.932;5.342;2022-07-10T07:03:33;17.00;99.90
17988;DHT22;9119;50.932;5.342;2022-07-10T07:05:58;17.10;99.90
17988;DHT22;9119;50.932;5.342;2022-07-10T07:08:24;17.10;99.90
17988;DHT22;9119;50.932;5.342;2022-07-10T07:10:50;17.00;99.90
17988;DHT22;9119;50.932;5.342;2022-07-10T07:13:15;16.80;99.90
17988;DHT22;9119;50.932;5.342;2022-07-10T07:15:41;17.00;99.90
17988;DHT22;9119;50.932;5.342;2022-07-10T07:18:17;16.90;99.90
17988;DHT22;9119;50.932;5.342;2022-07-10T07:20:43;17.00;99.90
17988;DHT22;9119;50.932;5.342;2022-07-10T07:23:27;16.90;99.90
17988;DHT22;9119;50.932;5.342;2022-07-10T07:25:53;17.00;99.90
17988;DHT22;9119;50.932;5.342;2022-07-10T07:28:19;17.40;99.90
17988;DHT22;9119;50.932;5.342;2022-07-10T07:30:49;17.50;99.90
17988;DHT22;9119;50.932;5.342;2022-07-10T07:33:14;17.60;99.90
17988;DHT22;9119;50.932;5.342;2022-07-10T07:35:40;17.50;99.90
17988;DHT22;9119;50.932;5.342;2022-07-10T07:38:06;17.70;99.90
17988;DHT22;9119;50.932;5.342;2022-07-10T07:40:33;17.80;99.90
17988;DHT22;9119;50.932;5.342;2022-07-10T07:42:59;17.80;99.90
17988;DHT22;9119;50.932;5.342;2022-07-10T07:45:26;17.80;99.90
17988;DHT22;9119;50.932;5.342;2022-07-10T07:47:53;17.50;99.90
17988;DHT22;9119;50.932;5.342;2022-07-10T07:50:25;17.80;99.90
17988;DHT22;9119;50.932;5.342;2022-07-10T07:52:52;17.70;99.90
17988;DHT22;9119;50.932;5.342;2022-07-10T07:55:19;18.00;99.90
17988;DHT22;9119;50.932;5.342;2022-07-10T07:57:46;18.00;99.90
17988;DHT22;9119;50.932;5.342;2022-07-10T08:00:12;18.00;99.90
17988;DHT22;9119;50.932;5.342;2022-07-10T08:02:39;18.20;99.90
17988;DHT22;9119;50.932;5.342;2022-07-10T08:05:05;18.40;99.90
17988;DHT22;9119;50.932;5.342;2022-07-10T08:07:48;18.50;99.90
17988;DHT22;9119;50.932;5.342;2022-07-10T08:10:17;18.80;99.90
17988;DHT22;9119;50.932;5.342;2022-07-10T08:12:43;18.70;99.90
17988;DHT22;9119;50.932;5.342;2022-07-10T08:15:12;18.80;99.90
17988;DHT22;9119;50.932;5.342;2022-07-10T08:17:38;18.80;99.90
17988;DHT22;9119;50.932;5.342;2022-07-10T08:20:06;18.80;99.90
17988;DHT22;9119;50.932;5.342;2022-07-10T08:22:33;19.00;99.90
17988;DHT22;9119;50.932;5.342;2022-07-10T08:24:59;18.90;99.90
17988;DHT22;9119;50.932;5.342;2022-07-10T08:27:24;18.90;99.90
17988;DHT22;9119;50.932;5.342;2022-07-10T08:29:50;18.90;99.90
17988;DHT22;9119;50.932;5.342;2022-07-10T08:32:16;19.30;99.90
17988;DHT22;9119;50.932;5.342;2022-07-10T08:34:42;18.80;99.90
17988;DHT22;9119;50.932;5.342;2022-07-10T08:37:08;19.00;99.90
17988;DHT22;9119;50.932;5.342;2022-07-10T08:39:34;19.30;99.90
17988;DHT22;9119;50.932;5.342;2022-07-10T08:42:00;19.50;99.90
17988;DHT22;9119;50.932;5.342;2022-07-10T08:44:27;19.40;99.90
17988;DHT22;9119;50.932;5.342;2022-07-10T08:46:53;19.70;99.90
17988;DHT22;9119;50.932;5.342;2022-07-10T08:49:20;20.10;99.90
17988;DHT22;9119;50.932;5.342;2022-07-10T08:52:05;20.10;99.90
17988;DHT22;9119;50.932;5.342;2022-07-10T08:54:32;20.10;99.90
17988;DHT22;9119;50.932;5.342;2022-07-10T08:57:05;19.70;99.90
17988;DHT22;9119;50.932;5.342;2022-07-10T08:59:34;19.40;99.90
17988;DHT22;9119;50.932;5.342;2022-07-10T09:02:00;19.60;99.90
17988;DHT22;9119;50.932;5.342;2022-07-10T09:04:29;19.50;99.90
17988;DHT22;9119;50.932;5.342;2022-07-10T09:06:55;19.50;99.90
17988;DHT22;9119;50.932;5.342;2022-07-10T09:09:21;19.40;99.90
17988;DHT22;9119;50.932;5.342;2022-07-10T09:11:47;19.40;99.90
17988;DHT22;9119;50.932;5.342;2022-07-10T09:14:17;19.30;99.90
17988;DHT22;9119;50.932;5.342;2022-07-10T09:16:44;19.40;99.90
17988;DHT22;9119;50.932;5.342;2022-07-10T09:19:23;19.80;99.90
17988;DHT22;9119;50.932;5.342;2022-07-10T09:21:54;20.10;99.90
17988;DHT22;9119;50.932;5.342;2022-07-10T09:24:20;19.80;99.90
17988;DHT22;9119;50.932;5.342;2022-07-10T09:29:21;20.20;99.90
17988;DHT22;9119;50.932;5.342;2022-07-10T09:31:51;20.50;99.90
17988;DHT22;9119;50.932;5.342;2022-07-10T09:34:17;20.50;99.90
17988;DHT22;9119;50.932;5.342;2022-07-10T09:36:43;20.50;99.90
17988;DHT22;9119;50.932;5.342;2022-07-10T09:39:09;19.90;99.90
17988;DHT22;9119;50.932;5.342;2022-07-10T09:41:34;19.80;99.90
17988;DHT22;9119;50.932;5.342;2022-07-10T09:44:03;19.60;99.90
17988;DHT22;9119;50.932;5.342;2022-07-10T09:46:35;19.70;99.90
17988;DHT22;9119;50.932;5.342;2022-07-10T09:51:43;19.50;99.90
17988;DHT22;9119;50.932;5.342;2022-07-10T09:54:09;19.60;99.90
17988;DHT22;9119;50.932;5.342;2022-07-10T09:56:46;19.30;99.90
17988;DHT22;9119;50.932;5.342;2022-07-10T09:59:14;19.10;99.90
17988;DHT22;9119;50.932;5.342;2022-07-10T10:01:46;19.30;99.90
17988;DHT22;9119;50.932;5.342;2022-07-10T10:04:17;19.20;99.90
17988;DHT22;9119;50.932;5.342;2022-07-10T10:07:07;19.20;99.90
17988;DHT22;9119;50.932;5.342;2022-07-10T10:09:41;19.20;99.90
17988;DHT22;9119;50.932;5.342;2022-07-10T10:12:39;19.20;99.90
17988;DHT22;9119;50.932;5.342;2022-07-10T10:15:11;19.10;99.90
17988;DHT22;9119;50.932;5.342;2022-07-10T10:17:38;19.20;99.90
17988;DHT22;9119;50.932;5.342;2022-07-10T10:20:07;19.20;99.90
17988;DHT22;9119;50.932;5.342;2022-07-10T10:22:53;19.20;99.90
17988;DHT22;9119;50.932;5.342;2022-07-10T10:25:27;19.50;99.90
17988;DHT22;9119;50.932;5.342;2022-07-10T10:27:56;19.20;99.90
17988;DHT22;9119;50.932;5.342;2022-07-10T10:30:21;19.30;99.90
17988;DHT22;9119;50.932;5.342;2022-07-10T10:32:47;19.60;99.90
17988;DHT22;9119;50.932;5.342;2022-07-10T10:35:43;19.50;99.90
17988;DHT22;9119;50.932;5.342;2022-07-10T10:38:15;19.50;99.90
17988;DHT22;9119;50.932;5.342;2022-07-10T10:40:41;19.60;99.90
17988;DHT22;9119;50.932;5.342;2022-07-10T10:45:43;19.40;99.90
17988;DHT22;9119;50.932;5.342;2022-07-10T10:48:12;19.50;99.90
17988;DHT22;9119;50.932;5.342;2022-07-10T10:50:51;19.60;99.90
17988;DHT22;9119;50.932;5.342;2022-07-10T10:53:18;19.80;99.90
17988;DHT22;9119;50.932;5.342;2022-07-10T10:58:27;19.90;99.90
17988;DHT22;9119;50.932;5.342;2022-07-10T11:01:23;19.80;99.90
17988;DHT22;9119;50.932;5.342;2022-07-10T11:09:30;20.10;99.90
17988;DHT22;9119;50.932;5.342;2022-07-10T11:12:07;19.70;99.90
17988;DHT22;9119;50.932;5.342;2022-07-10T11:14:38;19.70;99.90
17988;DHT22;9119;50.932;5.342;2022-07-10T11:17:05;19.70;99.90
17988;DHT22;9119;50.932;5.342;2022-07-10T11:19:33;19.70;99.90
17988;DHT22;9119;50.932;5.342;2022-07-10T11:25:07;19.60;99.90
17988;DHT22;9119;50.932;5.342;2022-07-10T11:30:17;19.60;99.90
17988;DHT22;9119;50.932;5.342;2022-07-10T11:32:42;19.70;99.90
17988;DHT22;9119;50.932;5.342;2022-07-10T11:35:14;19.60;99.90
17988;DHT22;9119;50.932;5.342;2022-07-10T11:37:53;19.70;99.90
17988;DHT22;9119;50.932;5.342;2022-07-10T11:40:19;19.70;99.90
17988;DHT22;9119;50.932;5.342;2022-07-10T11:42:52;20.00;99.90
17988;DHT22;9119;50.932;5.342;2022-07-10T11:47:49;19.90;99.90
17988;DHT22;9119;50.932;5.342;2022-07-10T11:50:14;20.00;99.90
17988;DHT22;9119;50.932;5.342;2022-07-10T11:52:40;20.20;99.90
17988;DHT22;9119;50.932;5.342;2022-07-10T11:55:16;20.20;99.90
17988;DHT22;9119;50.932;5.342;2022-07-10T11:57:43;20.30;99.90
17988;DHT22;9119;50.932;5.342;2022-07-10T12:00:26;20.80;99.90
17988;DHT22;9119;50.932;5.342;2022-07-10T12:02:52;21.50;99.90
17988;DHT22;9119;50.932;5.342;2022-07-10T12:05:38;21.90;99.90
17988;DHT22;9119;50.932;5.342;2022-07-10T12:08:04;21.50;99.90
17988;DHT22;9119;50.932;5.342;2022-07-10T12:10:32;21.60;99.90
17988;DHT22;9119;50.932;5.342;2022-07-10T12:13:08;22.10;99.90
17988;DHT22;9119;50.932;5.342;2022-07-10T12:15:37;22.70;99.90
17988;DHT22;9119;50.932;5.342;2022-07-10T12:18:08;23.50;99.90
17988;DHT22;9119;50.932;5.342;2022-07-10T12:20:34;23.90;99.90
17988;DHT22;9119;50.932;5.342;2022-07-10T12:23:00;24.00;99.90
17988;DHT22;9119;50.932;5.342;2022-07-10T12:25:26;23.20;99.90
17988;DHT22;9119;50.932;5.342;2022-07-10T12:27:56;22.70;99.90
17988;DHT22;9119;50.932;5.342;2022-07-10T12:30:35;22.90;99.90
17988;DHT22;9119;50.932;5.342;2022-07-10T12:33:23;23.10;99.90
17988;DHT22;9119;50.932;5.342;2022-07-10T12:35:56;23.10;99.90
17988;DHT22;9119;50.932;5.342;2022-07-10T12:40:51;22.10;99.90
17988;DHT22;9119;50.932;5.342;2022-07-10T12:43:29;22.10;99.90
17988;DHT22;9119;50.932;5.342;2022-07-10T12:46:19;22.70;99.90
17988;DHT22;9119;50.932;5.342;2022-07-10T12:51:29;22.40;99.90
17988;DHT22;9119;50.932;5.342;2022-07-10T12:53:55;22.50;99.90
17988;DHT22;9119;50.932;5.342;2022-07-10T12:56:34;23.20;99.90
17988;DHT22;9119;50.932;5.342;2022-07-10T12:59:02;23.60;99.90
17988;DHT22;9119;50.932;5.342;2022-07-10T13:01:38;24.30;99.90
17988;DHT22;9119;50.932;5.342;2022-07-10T13:04:06;23.30;99.90
17988;DHT22;9119;50.932;5.342;2022-07-10T13:06:34;23.80;99.90
17988;DHT22;9119;50.932;5.342;2022-07-10T13:09:02;23.80;99.90
17988;DHT22;9119;50.932;5.342;2022-07-10T13:11:28;24.30;99.90
17988;DHT22;9119;50.932;5.342;2022-07-10T13:13:54;24.50;99.90
17988;DHT22;9119;50.932;5.342;2022-07-10T13:16:21;24.00;99.90
17988;DHT22;9119;50.932;5.342;2022-07-10T13:18:48;23.60;99.90
17988;DHT22;9119;50.932;5.342;2022-07-10T13:21:19;24.10;99.90
17988;DHT22;9119;50.932;5.342;2022-07-10T13:23:45;24.40;99.90
17988;DHT22;9119;50.932;5.342;2022-07-10T13:26:10;23.80;99.90
17988;DHT22;9119;50.932;5.342;2022-07-10T13:28:36;23.40;99.90
17988;DHT22;9119;50.932;5.342;2022-07-10T13:31:02;23.30;99.90
17988;DHT22;9119;50.932;5.342;2022-07-10T13:33:28;23.60;99.90
17988;DHT22;9119;50.932;5.342;2022-07-10T13:35:54;23.50;99.90
17988;DHT22;9119;50.932;5.342;2022-07-10T13:38:20;24.00;99.90
17988;DHT22;9119;50.932;5.342;2022-07-10T13:40:46;24.10;99.90
17988;DHT22;9119;50.932;5.342;2022-07-10T13:43:13;23.80;99.90
17988;DHT22;9119;50.932;5.342;2022-07-10T13:45:39;23.20;99.90
17988;DHT22;9119;50.932;5.342;2022-07-10T13:48:09;22.80;99.90
17988;DHT22;9119;50.932;5.342;2022-07-10T13:50:39;22.80;99.90
17988;DHT22;9119;50.932;5.342;2022-07-10T13:53:05;23.10;99.90
17988;DHT22;9119;50.932;5.342;2022-07-10T13:55:33;22.70;99.90
17988;DHT22;9119;50.932;5.342;2022-07-10T13:57:59;22.60;99.90
17988;DHT22;9119;50.932;5.342;2022-07-10T14:00:25;22.90;99.90
17988;DHT22;9119;50.932;5.342;2022-07-10T14:02:51;23.10;99.90
17988;DHT22;9119;50.932;5.342;2022-07-10T14:05:16;22.90;99.90
17988;DHT22;9119;50.932;5.342;2022-07-10T14:07:42;22.90;99.90
17988;DHT22;9119;50.932;5.342;2022-07-10T14:10:08;23.00;99.90
17988;DHT22;9119;50.932;5.342;2022-07-10T14:12:34;23.00;99.90
17988;DHT22;9119;50.932;5.342;2022-07-10T14:15:00;23.30;99.90
17988;DHT22;9119;50.932;5.342;2022-07-10T14:17:26;23.50;99.90
17988;DHT22;9119;50.932;5.342;2022-07-10T14:19:53;24.40;99.90
17988;DHT22;9119;50.932;5.342;2022-07-10T14:22:19;24.60;99.90
17988;DHT22;9119;50.932;5.342;2022-07-10T14:24:45;25.10;99.90
17988;DHT22;9119;50.932;5.342;2022-07-10T14:27:10;25.60;99.90
17988;DHT22;9119;50.932;5.342;2022-07-10T14:29:36;25.30;99.90
17988;DHT22;9119;50.932;5.342;2022-07-10T14:32:02;24.80;99.90
17988;DHT22;9119;50.932;5.342;2022-07-10T14:34:28;24.60;99.90
17988;DHT22;9119;50.932;5.342;2022-07-10T14:36:55;25.30;99.90
17988;DHT22;9119;50.932;5.342;2022-07-10T14:39:21;25.20;99.90
17988;DHT22;9119;50.932;5.342;2022-07-10T14:41:47;24.90;99.90
17988;DHT22;9119;50.932;5.342;2022-07-10T14:44:12;24.60;99.90
17988;DHT22;9119;50.932;5.342;2022-07-10T14:46:38;24.60;99.90
17988;DHT22;9119;50.932;5.342;2022-07-10T14:49:04;24.20;99.90
17988;DHT22;9119;50.932;5.342;2022-07-10T14:51:29;24.60;99.90
17988;DHT22;9119;50.932;5.342;2022-07-10T14:53:55;24.80;99.90
17988;DHT22;9119;50.932;5.342;2022-07-10T14:56:22;24.50;99.90
17988;DHT22;9119;50.932;5.342;2022-07-10T14:58:48;24.40;99.90
17988;DHT22;9119;50.932;5.342;2022-07-10T15:01:14;23.80;99.90
17988;DHT22;9119;50.932;5.342;2022-07-10T15:03:41;23.80;99.90
17988;DHT22;9119;50.932;5.342;2022-07-10T15:06:08;23.70;99.90
17988;DHT22;9119;50.932;5.342;2022-07-10T15:08:34;23.40;99.90
17988;DHT22;9119;50.932;5.342;2022-07-10T15:11:02;23.20;99.90
17988;DHT22;9119;50.932;5.342;2022-07-10T15:13:30;23.10;99.90
17988;DHT22;9119;50.932;5.342;2022-07-10T15:15:56;22.90;99.90
17988;DHT22;9119;50.932;5.342;2022-07-10T15:18:24;23.00;99.90
17988;DHT22;9119;50.932;5.342;2022-07-10T15:20:50;23.20;99.90
17988;DHT22;9119;50.932;5.342;2022-07-10T15:23:16;23.00;99.90
17988;DHT22;9119;50.932;5.342;2022-07-10T15:25:41;23.20;99.90
17988;DHT22;9119;50.932;5.342;2022-07-10T15:28:08;23.50;99.90
17988;DHT22;9119;50.932;5.342;2022-07-10T15:30:35;23.30;99.90
17988;DHT22;9119;50.932;5.342;2022-07-10T15:33:05;23.30;99.90
17988;DHT22;9119;50.932;5.342;2022-07-10T15:35:31;23.10;99.90
17988;DHT22;9119;50.932;5.342;2022-07-10T15:37:58;22.80;99.90
17988;DHT22;9119;50.932;5.342;2022-07-10T15:40:26;22.60;99.90
17988;DHT22;9119;50.932;5.342;2022-07-10T15:42:55;22.60;99.90
17988;DHT22;9119;50.932;5.342;2022-07-10T15:45:22;22.80;99.90
17988;DHT22;9119;50.932;5.342;2022-07-10T15:47:47;22.80;99.90
17988;DHT22;9119;50.932;5.342;2022-07-10T15:50:13;23.10;99.90
17988;DHT22;9119;50.932;5.342;2022-07-10T15:52:39;23.00;99.90
17988;DHT22;9119;50.932;5.342;2022-07-10T15:55:05;23.30;99.90
17988;DHT22;9119;50.932;5.342;2022-07-10T15:57:32;23.30;99.90
17988;DHT22;9119;50.932;5.342;2022-07-10T15:59:58;23.00;99.90
17988;DHT22;9119;50.932;5.342;2022-07-10T16:02:23;23.10;99.90
17988;DHT22;9119;50.932;5.342;2022-07-10T16:04:50;23.20;99.90
17988;DHT22;9119;50.932;5.342;2022-07-10T16:07:15;22.90;99.90
17988;DHT22;9119;50.932;5.342;2022-07-10T16:09:41;23.20;99.90
17988;DHT22;9119;50.932;5.342;2022-07-10T16:12:07;22.60;99.90
17988;DHT22;9119;50.932;5.342;2022-07-10T16:14:33;22.70;99.90
17988;DHT22;9119;50.932;5.342;2022-07-10T16:16:59;22.50;99.90